sensor_id;sensor_type;location;lat;lon;timestamp;P1;durP1;ratioP1;P2;durP2;ratioP2
23658;SDS011;12006;42.666;23.326;2023-01-10T00:00:36;22.07;;;14.67;;
23658;SDS011;12006;42.666;23.326;2023-01-10T00:03:02;24.90;;;15.73;;
23658;SDS011;12006;42.666;23.326;2023-01-10T00:05:27;24.47;;;15.57;;
23658;SDS011;12006;42.666;23.326;2023-01-10T00:07:53;21.10;;;13.23;;
23658;SDS011;12006;42.666;23.326;2023-01-10T00:10:18;23.60;;;15.03;;
23658;SDS011;12006;42.666;23.326;2023-01-10T00:12:43;23.27;;;14.30;;
23658;SDS011;12006;42.666;23.326;2023-01-10T00:15:27;21.57;;;14.83;;
23658;SDS011;12006;42.666;23.326;2023-01-10T00:17:55;24.67;;;14.60;;
23658;SDS011;12006;42.666;23.326;2023-01-10T00:20:20;25.53;;;15.23;;
23658;SDS011;12006;42.666;23.326;2023-01-10T00:22:46;22.80;;;14.27;;
23658;SDS011;12006;42.666;23.326;2023-01-10T00:25:11;22.73;;;15.10;;
23658;SDS011;12006;42.666;23.326;2023-01-10T00:27:36;22.33;;;14.67;;
23658;SDS011;12006;42.666;23.326;2023-01-10T00:30:02;22.13;;;14.27;;
23658;SDS011;12006;42.666;23.326;2023-01-10T00:32:39;20.57;;;14.73;;
23658;SDS011;12006;42.666;23.326;2023-01-10T00:35:04;20.07;;;13.33;;
23658;SDS011;12006;42.666;23.326;2023-01-10T00:37:30;22.77;;;13.97;;
23658;SDS011;12006;42.666;23.326;2023-01-10T00:39:56;20.83;;;13.83;;
23658;SDS011;12006;42.666;23.326;2023-01-10T00:42:21;19.20;;;12.77;;
23658;SDS011;12006;42.666;23.326;2023-01-10T00:45:05;19.63;;;13.77;;
23658;SDS011;12006;42.666;23.326;2023-01-10T00:47:30;19.43;;;12.90;;
23658;SDS011;12006;42.666;23.326;2023-01-10T00:49:55;21.93;;;13.30;;
23658;SDS011;12006;42.666;23.326;2023-01-10T00:52:21;19.73;;;12.90;;
23658;SDS011;12006;42.666;23.326;2023-01-10T00:54:46;18.20;;;13.07;;
23658;SDS011;12006;42.666;23.326;2023-01-10T00:57:11;22.67;;;14.43;;
23658;SDS011;12006;42.666;23.326;2023-01-10T00:59:36;20.13;;;12.53;;
23658;SDS011;12006;42.666;23.326;2023-01-10T01:02:02;20.37;;;13.10;;
23658;SDS011;12006;42.666;23.326;2023-01-10T01:04:27;17.43;;;13.03;;
23658;SDS011;12006;42.666;23.326;2023-01-10T01:06:52;20.13;;;12.80;;
23658;SDS011;12006;42.666;23.326;2023-01-10T01:09:17;22.33;;;14.03;;
23658;SDS011;12006;42.666;23.326;2023-01-10T01:11:43;20.97;;;13.07;;
23658;SDS011;12006;42.666;23.326;2023-01-10T01:14:08;19.70;;;13.83;;
23658;SDS011;12006;42.666;23.326;2023-01-10T01:16:33;20.03;;;13.60;;
23658;SDS011;12006;42.666;23.326;2023-01-10T01:18:58;21.20;;;13.53;;
23658;SDS011;12006;42.666;23.326;2023-01-10T01:21:23;21.07;;;14.53;;
23658;SDS011;12006;42.666;23.326;2023-01-10T01:23:55;18.83;;;12.87;;
23658;SDS011;12006;42.666;23.326;2023-01-10T01:26:23;16.57;;;12.57;;
23658;SDS011;12006;42.666;23.326;2023-01-10T01:28:48;20.43;;;12.93;;
23658;SDS011;12006;42.666;23.326;2023-01-10T01:31:14;19.47;;;13.23;;
23658;SDS011;12006;42.666;23.326;2023-01-10T01:33:39;20.67;;;14.63;;
23658;SDS011;12006;42.666;23.326;2023-01-10T01:36:06;20.40;;;13.87;;
23658;SDS011;12006;42.666;23.326;2023-01-10T01:38:32;20.07;;;13.50;;
23658;SDS011;12006;42.666;23.326;2023-01-10T01:40:57;21.03;;;14.17;;
23658;SDS011;12006;42.666;23.326;2023-01-10T01:43:24;19.40;;;13.23;;
23658;SDS011;12006;42.666;23.326;2023-01-10T01:45:49;18.63;;;13.37;;
23658;SDS011;12006;42.666;23.326;2023-01-10T01:48:20;21.40;;;13.80;;
23658;SDS011;12006;42.666;23.326;2023-01-10T01:51:01;19.40;;;13.23;;
23658;SDS011;12006;42.666;23.326;2023-01-10T01:53:53;20.17;;;13.60;;
23658;SDS011;12006;42.666;23.326;2023-01-10T01:56:22;17.17;;;12.00;;
23658;SDS011;12006;42.666;23.326;2023-01-10T02:01:17;18.10;;;13.27;;
23658;SDS011;12006;42.666;23.326;2023-01-10T02:03:44;20.17;;;12.97;;
23658;SDS011;12006;42.666;23.326;2023-01-10T02:06:11;19.30;;;13.33;;
23658;SDS011;12006;42.666;23.326;2023-01-10T02:08:38;17.43;;;12.37;;
23658;SDS011;12006;42.666;23.326;2023-01-10T02:11:07;18.97;;;12.67;;
23658;SDS011;12006;42.666;23.326;2023-01-10T02:13:33;18.37;;;12.67;;
23658;SDS011;12006;42.666;23.326;2023-01-10T02:16:01;17.80;;;12.37;;
23658;SDS011;12006;42.666;23.326;2023-01-10T02:18:26;15.27;;;11.27;;
23658;SDS011;12006;42.666;23.326;2023-01-10T02:21:36;18.27;;;12.83;;
23658;SDS011;12006;42.666;23.326;2023-01-10T02:34:25;19.57;;;13.40;;
23658;SDS011;12006;42.666;23.326;2023-01-10T02:36:58;18.53;;;13.70;;
23658;SDS011;12006;42.666;23.326;2023-01-10T02:39:28;20.00;;;14.57;;
23658;SDS011;12006;42.666;23.326;2023-01-10T02:46:45;19.00;;;13.63;;
23658;SDS011;12006;42.666;23.326;2023-01-10T02:49:11;18.03;;;13.13;;
23658;SDS011;12006;42.666;23.326;2023-01-10T02:51:36;17.57;;;12.63;;
23658;SDS011;12006;42.666;23.326;2023-01-10T02:54:21;19.53;;;13.67;;
23658;SDS011;12006;42.666;23.326;2023-01-10T03:02:10;16.50;;;12.97;;
23658;SDS011;12006;42.666;23.326;2023-01-10T03:07:24;17.63;;;12.47;;
23658;SDS011;12006;42.666;23.326;2023-01-10T03:09:57;17.47;;;12.77;;
23658;SDS011;12006;42.666;23.326;2023-01-10T03:12:30;18.73;;;12.33;;
23658;SDS011;12006;42.666;23.326;2023-01-10T03:14:56;19.77;;;14.30;;
23658;SDS011;12006;42.666;23.326;2023-01-10T03:17:23;19.67;;;13.03;;
23658;SDS011;12006;42.666;23.326;2023-01-10T03:19:50;18.97;;;13.27;;
23658;SDS011;12006;42.666;23.326;2023-01-10T03:22:16;17.60;;;13.07;;
23658;SDS011;12006;42.666;23.326;2023-01-10T03:24:42;16.13;;;12.27;;
23658;SDS011;12006;42.666;23.326;2023-01-10T03:32:20;16.47;;;12.47;;
23658;SDS011;12006;42.666;23.326;2023-01-10T03:34:47;16.40;;;12.30;;
23658;SDS011;12006;42.666;23.326;2023-01-10T03:44:57;17.50;;;12.70;;
23658;SDS011;12006;42.666;23.326;2023-01-10T03:47:29;17.00;;;11.90;;
23658;SDS011;12006;42.666;23.326;2023-01-10T03:49:58;14.93;;;11.43;;
23658;SDS011;12006;42.666;23.326;2023-01-10T03:52:24;15.80;;;11.57;;
23658;SDS011;12006;42.666;23.326;2023-01-10T03:54:50;13.77;;;10.53;;
23658;SDS011;12006;42.666;23.326;2023-01-10T03:57:25;13.03;;;9.40;;
23658;SDS011;12006;42.666;23.326;2023-01-10T03:59:51;14.03;;;10.37;;
23658;SDS011;12006;42.666;23.326;2023-01-10T04:02:17;15.27;;;10.93;;
23658;SDS011;12006;42.666;23.326;2023-01-10T04:04:42;15.50;;;10.43;;
23658;SDS011;12006;42.666;23.326;2023-01-10T04:07:07;16.33;;;11.40;;
23658;SDS011;12006;42.666;23.326;2023-01-10T04:09:32;16.03;;;11.60;;
23658;SDS011;12006;42.666;23.326;2023-01-10T04:11:58;14.30;;;11.07;;
23658;SDS011;12006;42.666;23.326;2023-01-10T04:14:23;17.20;;;12.70;;
23658;SDS011;12006;42.666;23.326;2023-01-10T04:16:48;17.80;;;12.50;;
23658;SDS011;12006;42.666;23.326;2023-01-10T04:19:14;17.47;;;12.97;;
23658;SDS011;12006;42.666;23.326;2023-01-10T04:21:39;18.23;;;13.73;;
23658;SDS011;12006;42.666;23.326;2023-01-10T04:24:04;17.23;;;12.03;;
23658;SDS011;12006;42.666;23.326;2023-01-10T04:26:30;15.17;;;11.70;;
23658;SDS011;12006;42.666;23.326;2023-01-10T04:28:55;17.53;;;13.17;;
23658;SDS011;12006;42.666;23.326;2023-01-10T04:31:20;16.93;;;12.63;;
23658;SDS011;12006;42.666;23.326;2023-01-10T04:33:46;17.77;;;12.33;;
23658;SDS011;12006;42.666;23.326;2023-01-10T04:36:12;16.20;;;12.30;;
23658;SDS011;12006;42.666;23.326;2023-01-10T04:38:37;20.70;;;13.83;;
23658;SDS011;12006;42.666;23.326;2023-01-10T04:41:02;18.30;;;13.03;;
23658;SDS011;12006;42.666;23.326;2023-01-10T04:43:28;18.00;;;12.93;;
23658;SDS011;12006;42.666;23.326;2023-01-10T04:45:53;19.67;;;13.33;;
23658;SDS011;12006;42.666;23.326;2023-01-10T04:48:18;18.07;;;12.70;;
23658;SDS011;12006;42.666;23.326;2023-01-10T04:50:50;15.90;;;12.67;;
23658;SDS011;12006;42.666;23.326;2023-01-10T04:53:16;19.97;;;12.90;;
23658;SDS011;12006;42.666;23.326;2023-01-10T04:55:41;17.20;;;12.33;;
23658;SDS011;12006;42.666;23.326;2023-01-10T04:58:06;18.30;;;12.80;;
23658;SDS011;12006;42.666;23.326;2023-01-10T05:00:32;17.37;;;12.73;;
23658;SDS011;12006;42.666;23.326;2023-01-10T05:02:57;20.00;;;13.53;;
23658;SDS011;12006;42.666;23.326;2023-01-10T05:05:23;18.43;;;13.37;;
23658;SDS011;12006;42.666;23.326;2023-01-10T05:07:48;17.70;;;12.97;;
23658;SDS011;12006;42.666;23.326;2023-01-10T05:10:13;17.13;;;12.83;;
23658;SDS011;12006;42.666;23.326;2023-01-10T05:12:38;17.33;;;12.80;;
23658;SDS011;12006;42.666;23.326;2023-01-10T05:15:04;17.10;;;12.37;;
23658;SDS011;12006;42.666;23.326;2023-01-10T05:17:30;17.63;;;12.30;;
23658;SDS011;12006;42.666;23.326;2023-01-10T05:19:55;17.37;;;11.93;;
23658;SDS011;12006;42.666;23.326;2023-01-10T05:22:20;16.23;;;11.77;;
23658;SDS011;12006;42.666;23.326;2023-01-10T05:24:45;16.63;;;12.07;;
23658;SDS011;12006;42.666;23.326;2023-01-10T05:27:10;17.83;;;12.77;;
23658;SDS011;12006;42.666;23.326;2023-01-10T05:29:36;17.70;;;12.00;;
23658;SDS011;12006;42.666;23.326;2023-01-10T05:32:01;17.00;;;12.60;;
23658;SDS011;12006;42.666;23.326;2023-01-10T05:34:26;16.33;;;12.53;;
23658;SDS011;12006;42.666;23.326;2023-01-10T05:36:51;14.73;;;11.03;;
23658;SDS011;12006;42.666;23.326;2023-01-10T05:39:17;15.47;;;11.53;;
23658;SDS011;12006;42.666;23.326;2023-01-10T05:41:42;17.10;;;11.50;;
23658;SDS011;12006;42.666;23.326;2023-01-10T05:44:07;15.63;;;11.63;;
23658;SDS011;12006;42.666;23.326;2023-01-10T05:46:33;15.53;;;11.37;;
23658;SDS011;12006;42.666;23.326;2023-01-10T05:48:58;15.73;;;11.00;;
23658;SDS011;12006;42.666;23.326;2023-01-10T05:51:23;14.87;;;11.37;;
23658;SDS011;12006;42.666;23.326;2023-01-10T05:53:49;14.80;;;10.83;;
23658;SDS011;12006;42.666;23.326;2023-01-10T05:56:14;16.17;;;11.50;;
23658;SDS011;12006;42.666;23.326;2023-01-10T05:58:39;14.37;;;10.77;;
23658;SDS011;12006;42.666;23.326;2023-01-10T06:01:05;15.93;;;11.53;;
23658;SDS011;12006;42.666;23.326;2023-01-10T06:03:30;15.87;;;11.53;;
23658;SDS011;12006;42.666;23.326;2023-01-10T06:05:55;16.17;;;12.27;;
23658;SDS011;12006;42.666;23.326;2023-01-10T06:08:21;15.40;;;10.83;;
23658;SDS011;12006;42.666;23.326;2023-01-10T06:10:47;14.33;;;11.07;;
23658;SDS011;12006;42.666;23.326;2023-01-10T06:13:12;14.33;;;11.13;;
23658;SDS011;12006;42.666;23.326;2023-01-10T06:15:37;14.77;;;11.50;;
23658;SDS011;12006;42.666;23.326;2023-01-10T06:18:03;14.63;;;12.23;;
23658;SDS011;12006;42.666;23.326;2023-01-10T06:20:28;14.33;;;11.40;;
23658;SDS011;12006;42.666;23.326;2023-01-10T06:22:54;15.07;;;11.77;;
23658;SDS011;12006;42.666;23.326;2023-01-10T06:25:19;16.70;;;11.33;;
23658;SDS011;12006;42.666;23.326;2023-01-10T06:27:44;15.03;;;11.67;;
23658;SDS011;12006;42.666;23.326;2023-01-10T06:30:10;16.13;;;11.47;;
23658;SDS011;12006;42.666;23.326;2023-01-10T06:32:36;16.87;;;12.37;;
23658;SDS011;12006;42.666;23.326;2023-01-10T06:35:01;19.93;;;15.27;;
23658;SDS011;12006;42.666;23.326;2023-01-10T06:37:27;16.93;;;12.00;;
23658;SDS011;12006;42.666;23.326;2023-01-10T06:39:52;16.50;;;11.50;;
23658;SDS011;12006;42.666;23.326;2023-01-10T06:42:17;14.83;;;10.93;;
23658;SDS011;12006;42.666;23.326;2023-01-10T06:44:42;15.77;;;11.83;;
23658;SDS011;12006;42.666;23.326;2023-01-10T06:47:07;14.30;;;11.17;;
23658;SDS011;12006;42.666;23.326;2023-01-10T06:49:33;12.13;;;10.37;;
23658;SDS011;12006;42.666;23.326;2023-01-10T06:51:58;15.80;;;12.13;;
23658;SDS011;12006;42.666;23.326;2023-01-10T06:54:23;14.03;;;10.93;;
23658;SDS011;12006;42.666;23.326;2023-01-10T06:56:48;18.40;;;11.60;;
23658;SDS011;12006;42.666;23.326;2023-01-10T06:59:14;18.00;;;13.30;;
23658;SDS011;12006;42.666;23.326;2023-01-10T07:01:39;16.70;;;13.07;;
23658;SDS011;12006;42.666;23.326;2023-01-10T07:04:04;18.60;;;13.40;;
23658;SDS011;12006;42.666;23.326;2023-01-10T07:06:29;19.33;;;13.17;;
23658;SDS011;12006;42.666;23.326;2023-01-10T07:08:55;21.23;;;13.67;;
23658;SDS011;12006;42.666;23.326;2023-01-10T07:11:21;26.90;;;21.40;;
23658;SDS011;12006;42.666;23.326;2023-01-10T07:13:46;25.07;;;18.53;;
23658;SDS011;12006;42.666;23.326;2023-01-10T07:16:12;41.87;;;29.93;;
23658;SDS011;12006;42.666;23.326;2023-01-10T07:18:39;26.20;;;19.33;;
23658;SDS011;12006;42.666;23.326;2023-01-10T07:21:04;37.87;;;26.87;;
23658;SDS011;12006;42.666;23.326;2023-01-10T07:23:29;24.77;;;18.10;;
23658;SDS011;12006;42.666;23.326;2023-01-10T07:25:56;21.77;;;17.10;;
23658;SDS011;12006;42.666;23.326;2023-01-10T07:28:21;35.17;;;26.33;;
23658;SDS011;12006;42.666;23.326;2023-01-10T07:30:46;24.00;;;16.37;;
23658;SDS011;12006;42.666;23.326;2023-01-10T07:33:11;25.33;;;16.23;;
23658;SDS011;12006;42.666;23.326;2023-01-10T07:35:37;20.07;;;15.30;;
23658;SDS011;12006;42.666;23.326;2023-01-10T07:38:03;22.53;;;16.67;;
23658;SDS011;12006;42.666;23.326;2023-01-10T07:40:28;23.33;;;16.63;;
23658;SDS011;12006;42.666;23.326;2023-01-10T07:42:57;21.30;;;15.80;;
23658;SDS011;12006;42.666;23.326;2023-01-10T07:45:22;30.83;;;20.07;;
23658;SDS011;12006;42.666;23.326;2023-01-10T07:47:48;32.83;;;21.23;;
23658;SDS011;12006;42.666;23.326;2023-01-10T07:50:13;24.27;;;16.40;;
23658;SDS011;12006;42.666;23.326;2023-01-10T07:52:39;25.47;;;17.20;;
23658;SDS011;12006;42.666;23.326;2023-01-10T07:55:04;25.37;;;16.67;;
23658;SDS011;12006;42.666;23.326;2023-01-10T07:57:30;21.90;;;16.03;;
23658;SDS011;12006;42.666;23.326;2023-01-10T07:59:55;24.27;;;16.33;;
23658;SDS011;12006;42.666;23.326;2023-01-10T08:02:20;23.97;;;14.97;;
23658;SDS011;12006;42.666;23.326;2023-01-10T08:04:45;23.10;;;15.07;;
23658;SDS011;12006;42.666;23.326;2023-01-10T08:07:11;23.27;;;15.87;;
23658;SDS011;12006;42.666;23.326;2023-01-10T08:09:36;21.80;;;15.37;;
23658;SDS011;12006;42.666;23.326;2023-01-10T08:12:01;17.83;;;14.63;;
23658;SDS011;12006;42.666;23.326;2023-01-10T08:14:26;20.17;;;15.13;;
23658;SDS011;12006;42.666;23.326;2023-01-10T08:16:51;20.83;;;16.47;;
23658;SDS011;12006;42.666;23.326;2023-01-10T08:19:17;24.70;;;17.20;;
23658;SDS011;12006;42.666;23.326;2023-01-10T08:21:42;26.70;;;18.27;;
23658;SDS011;12006;42.666;23.326;2023-01-10T08:24:07;26.67;;;18.47;;
23658;SDS011;12006;42.666;23.326;2023-01-10T08:26:33;24.47;;;17.27;;
23658;SDS011;12006;42.666;23.326;2023-01-10T08:28:59;19.60;;;15.60;;
23658;SDS011;12006;42.666;23.326;2023-01-10T08:31:24;23.17;;;16.57;;
23658;SDS011;12006;42.666;23.326;2023-01-10T08:33:49;20.87;;;14.50;;
23658;SDS011;12006;42.666;23.326;2023-01-10T08:36:18;21.70;;;16.27;;
23658;SDS011;12006;42.666;23.326;2023-01-10T08:38:43;39.20;;;30.30;;
23658;SDS011;12006;42.666;23.326;2023-01-10T08:41:09;29.23;;;22.40;;
23658;SDS011;12006;42.666;23.326;2023-01-10T08:43:34;33.07;;;24.87;;
23658;SDS011;12006;42.666;23.326;2023-01-10T08:45:59;63.07;;;41.20;;
23658;SDS011;12006;42.666;23.326;2023-01-10T08:48:25;32.03;;;22.63;;
23658;SDS011;12006;42.666;23.326;2023-01-10T08:50:50;26.00;;;19.67;;
23658;SDS011;12006;42.666;23.326;2023-01-10T08:53:15;28.30;;;22.40;;
23658;SDS011;12006;42.666;23.326;2023-01-10T08:55:41;33.23;;;24.93;;
23658;SDS011;12006;42.666;23.326;2023-01-10T08:58:07;20.87;;;15.87;;
23658;SDS011;12006;42.666;23.326;2023-01-10T09:00:33;20.93;;;15.97;;
23658;SDS011;12006;42.666;23.326;2023-01-10T09:02:58;23.87;;;15.50;;
23658;SDS011;12006;42.666;23.326;2023-01-10T09:05:23;22.67;;;16.13;;
23658;SDS011;12006;42.666;23.326;2023-01-10T09:07:50;23.60;;;15.93;;
23658;SDS011;12006;42.666;23.326;2023-01-10T09:10:15;22.70;;;16.53;;
23658;SDS011;12006;42.666;23.326;2023-01-10T09:12:40;34.23;;;24.80;;
23658;SDS011;12006;42.666;23.326;2023-01-10T09:15:21;33.27;;;25.67;;
23658;SDS011;12006;42.666;23.326;2023-01-10T09:17:47;37.80;;;27.67;;
23658;SDS011;12006;42.666;23.326;2023-01-10T09:20:14;35.50;;;25.63;;
23658;SDS011;12006;42.666;23.326;2023-01-10T09:22:39;33.03;;;24.33;;
23658;SDS011;12006;42.666;23.326;2023-01-10T09:25:04;37.90;;;28.87;;
23658;SDS011;12006;42.666;23.326;2023-01-10T09:27:30;41.10;;;27.83;;
23658;SDS011;12006;42.666;23.326;2023-01-10T09:29:56;38.33;;;26.60;;
23658;SDS011;12006;42.666;23.326;2023-01-10T09:32:21;37.43;;;25.90;;
23658;SDS011;12006;42.666;23.326;2023-01-10T09:34:46;36.77;;;25.07;;
23658;SDS011;12006;42.666;23.326;2023-01-10T09:37:11;35.73;;;23.70;;
23658;SDS011;12006;42.666;23.326;2023-01-10T09:39:37;45.10;;;28.93;;
23658;SDS011;12006;42.666;23.326;2023-01-10T09:44:39;44.43;;;30.37;;
23658;SDS011;12006;42.666;23.326;2023-01-10T09:52:02;42.40;;;29.03;;
23658;SDS011;12006;42.666;23.326;2023-01-10T09:54:40;39.70;;;29.07;;
23658;SDS011;12006;42.666;23.326;2023-01-10T09:57:07;36.10;;;22.80;;
23658;SDS011;12006;42.666;23.326;2023-01-10T09:59:38;39.87;;;26.87;;
23658;SDS011;12006;42.666;23.326;2023-01-10T10:02:07;36.93;;;25.60;;
23658;SDS011;12006;42.666;23.326;2023-01-10T10:04:38;40.27;;;26.27;;
23658;SDS011;12006;42.666;23.326;2023-01-10T10:07:06;37.63;;;26.63;;
23658;SDS011;12006;42.666;23.326;2023-01-10T10:09:35;40.30;;;26.90;;
23658;SDS011;12006;42.666;23.326;2023-01-10T10:20:02;36.33;;;25.10;;
23658;SDS011;12006;42.666;23.326;2023-01-10T10:22:36;39.03;;;25.90;;
23658;SDS011;12006;42.666;23.326;2023-01-10T10:27:39;37.97;;;24.30;;
23658;SDS011;12006;42.666;23.326;2023-01-10T10:35:07;40.53;;;25.57;;
23658;SDS011;12006;42.666;23.326;2023-01-10T10:37:37;41.07;;;27.53;;
23658;SDS011;12006;42.666;23.326;2023-01-10T10:42:43;36.53;;;22.93;;
23658;SDS011;12006;42.666;23.326;2023-01-10T10:47:43;42.83;;;26.47;;
23658;SDS011;12006;42.666;23.326;2023-01-10T10:52:39;40.83;;;26.30;;
23658;SDS011;12006;42.666;23.326;2023-01-10T10:55:05;37.93;;;25.27;;
23658;SDS011;12006;42.666;23.326;2023-01-10T10:57:32;40.87;;;26.37;;
23658;SDS011;12006;42.666;23.326;2023-01-10T10:59:59;40.90;;;27.00;;
23658;SDS011;12006;42.666;23.326;2023-01-10T11:04:50;45.77;;;27.07;;
23658;SDS011;12006;42.666;23.326;2023-01-10T11:07:16;44.10;;;24.33;;
23658;SDS011;12006;42.666;23.326;2023-01-10T11:09:42;38.47;;;24.90;;
23658;SDS011;12006;42.666;23.326;2023-01-10T11:12:30;42.90;;;26.53;;
23658;SDS011;12006;42.666;23.326;2023-01-10T11:14:57;39.67;;;25.83;;
23658;SDS011;12006;42.666;23.326;2023-01-10T11:20:03;42.47;;;28.70;;
23658;SDS011;12006;42.666;23.326;2023-01-10T11:22:35;47.30;;;30.83;;
23658;SDS011;12006;42.666;23.326;2023-01-10T11:25:02;48.77;;;31.40;;
23658;SDS011;12006;42.666;23.326;2023-01-10T11:27:29;56.97;;;35.20;;
23658;SDS011;12006;42.666;23.326;2023-01-10T11:29:58;55.83;;;35.10;;
23658;SDS011;12006;42.666;23.326;2023-01-10T11:33:06;62.53;;;38.43;;
23658;SDS011;12006;42.666;23.326;2023-01-10T11:35:54;62.13;;;37.60;;
23658;SDS011;12006;42.666;23.326;2023-01-10T11:38:16;57.70;;;37.47;;
23658;SDS011;12006;42.666;23.326;2023-01-10T11:40:55;59.93;;;38.30;;
23658;SDS011;12006;42.666;23.326;2023-01-10T11:43:25;54.87;;;35.27;;
23658;SDS011;12006;42.666;23.326;2023-01-10T11:45:55;58.13;;;40.83;;
23658;SDS011;12006;42.666;23.326;2023-01-10T11:48:21;60.07;;;40.97;;
23658;SDS011;12006;42.666;23.326;2023-01-10T11:50:48;55.47;;;39.07;;
23658;SDS011;12006;42.666;23.326;2023-01-10T11:53:29;62.37;;;40.97;;
23658;SDS011;12006;42.666;23.326;2023-01-10T11:55:55;49.00;;;32.87;;
23658;SDS011;12006;42.666;23.326;2023-01-10T11:58:21;49.70;;;34.17;;
23658;SDS011;12006;42.666;23.326;2023-01-10T12:00:46;42.67;;;30.03;;
23658;SDS011;12006;42.666;23.326;2023-01-10T12:05:40;41.13;;;30.63;;
23658;SDS011;12006;42.666;23.326;2023-01-10T12:08:21;48.10;;;31.30;;
23658;SDS011;12006;42.666;23.326;2023-01-10T12:10:52;47.70;;;32.57;;
23658;SDS011;12006;42.666;23.326;2023-01-10T12:13:19;39.70;;;28.17;;
23658;SDS011;12006;42.666;23.326;2023-01-10T12:15:45;43.10;;;28.87;;
23658;SDS011;12006;42.666;23.326;2023-01-10T12:18:10;39.60;;;28.80;;
23658;SDS011;12006;42.666;23.326;2023-01-10T12:20:46;36.80;;;24.70;;
23658;SDS011;12006;42.666;23.326;2023-01-10T12:23:15;36.67;;;26.13;;
23658;SDS011;12006;42.666;23.326;2023-01-10T12:25:43;37.10;;;25.90;;
23658;SDS011;12006;42.666;23.326;2023-01-10T12:28:13;33.40;;;23.70;;
23658;SDS011;12006;42.666;23.326;2023-01-10T12:30:41;35.90;;;25.57;;
23658;SDS011;12006;42.666;23.326;2023-01-10T12:33:11;33.17;;;24.97;;
23658;SDS011;12006;42.666;23.326;2023-01-10T12:41:05;46.57;;;31.43;;
23658;SDS011;12006;42.666;23.326;2023-01-10T12:43:37;41.63;;;28.83;;
23658;SDS011;12006;42.666;23.326;2023-01-10T12:46:25;40.70;;;29.37;;
23658;SDS011;12006;42.666;23.326;2023-01-10T12:49:04;41.83;;;28.83;;
23658;SDS011;12006;42.666;23.326;2023-01-10T12:51:30;42.43;;;28.87;;
23658;SDS011;12006;42.666;23.326;2023-01-10T12:53:58;40.30;;;28.43;;
23658;SDS011;12006;42.666;23.326;2023-01-10T12:56:25;41.97;;;28.30;;
23658;SDS011;12006;42.666;23.326;2023-01-10T12:59:02;34.80;;;23.93;;
23658;SDS011;12006;42.666;23.326;2023-01-10T13:01:30;31.97;;;21.07;;
23658;SDS011;12006;42.666;23.326;2023-01-10T13:03:58;30.33;;;22.17;;
23658;SDS011;12006;42.666;23.326;2023-01-10T13:06:32;29.90;;;19.93;;
23658;SDS011;12006;42.666;23.326;2023-01-10T13:08:58;29.93;;;20.97;;
23658;SDS011;12006;42.666;23.326;2023-01-10T13:11:24;29.67;;;20.67;;
23658;SDS011;12006;42.666;23.326;2023-01-10T13:13:53;29.40;;;20.30;;
23658;SDS011;12006;42.666;23.326;2023-01-10T13:21:37;29.10;;;19.83;;
23658;SDS011;12006;42.666;23.326;2023-01-10T13:24:03;30.43;;;20.93;;
23658;SDS011;12006;42.666;23.326;2023-01-10T13:29:10;30.50;;;20.33;;
23658;SDS011;12006;42.666;23.326;2023-01-10T13:31:36;25.97;;;18.37;;
23658;SDS011;12006;42.666;23.326;2023-01-10T13:34:04;26.40;;;20.50;;
23658;SDS011;12006;42.666;23.326;2023-01-10T13:36:40;23.40;;;17.47;;
23658;SDS011;12006;42.666;23.326;2023-01-10T13:39:06;26.77;;;17.83;;
23658;SDS011;12006;42.666;23.326;2023-01-10T14:03:41;22.47;;;16.53;;
23658;SDS011;12006;42.666;23.326;2023-01-10T14:06:10;21.63;;;14.70;;
23658;SDS011;12006;42.666;23.326;2023-01-10T14:08:37;20.27;;;16.27;;
23658;SDS011;12006;42.666;23.326;2023-01-10T14:11:09;18.33;;;15.13;;
23658;SDS011;12006;42.666;23.326;2023-01-10T14:13:35;17.37;;;13.77;;
23658;SDS011;12006;42.666;23.326;2023-01-10T14:16:01;16.07;;;13.53;;
23658;SDS011;12006;42.666;23.326;2023-01-10T14:20:55;13.40;;;10.30;;
23658;SDS011;12006;42.666;23.326;2023-01-10T14:23:29;16.63;;;12.57;;
23658;SDS011;12006;42.666;23.326;2023-01-10T14:25:58;15.20;;;11.83;;
23658;SDS011;12006;42.666;23.326;2023-01-10T14:28:30;11.63;;;8.87;;
23658;SDS011;12006;42.666;23.326;2023-01-10T14:33:25;11.33;;;9.57;;
23658;SDS011;12006;42.666;23.326;2023-01-10T14:35:55;13.30;;;11.90;;
23658;SDS011;12006;42.666;23.326;2023-01-10T14:38:23;11.20;;;9.73;;
23658;SDS011;12006;42.666;23.326;2023-01-10T14:40:50;12.13;;;10.03;;
23658;SDS011;12006;42.666;23.326;2023-01-10T14:43:18;12.07;;;8.00;;
23658;SDS011;12006;42.666;23.326;2023-01-10T14:45:47;9.03;;;7.83;;
23658;SDS011;12006;42.666;23.326;2023-01-10T14:48:25;8.57;;;7.03;;
23658;SDS011;12006;42.666;23.326;2023-01-10T14:50:52;6.87;;;6.13;;
23658;SDS011;12006;42.666;23.326;2023-01-10T14:53:25;5.83;;;5.33;;
23658;SDS011;12006;42.666;23.326;2023-01-10T14:55:50;7.33;;;5.47;;
23658;SDS011;12006;42.666;23.326;2023-01-10T14:58:16;5.57;;;3.90;;
23658;SDS011;12006;42.666;23.326;2023-01-10T15:00:42;5.33;;;4.40;;
23658;SDS011;12006;42.666;23.326;2023-01-10T15:03:13;6.93;;;4.60;;
23658;SDS011;12006;42.666;23.326;2023-01-10T15:05:48;5.20;;;4.57;;
23658;SDS011;12006;42.666;23.326;2023-01-10T15:10:40;5.07;;;3.57;;
23658;SDS011;12006;42.666;23.326;2023-01-10T15:13:06;2.50;;;1.60;;
23658;SDS011;12006;42.666;23.326;2023-01-10T15:15:36;3.47;;;2.43;;
23658;SDS011;12006;42.666;23.326;2023-01-10T15:18:05;3.53;;;2.23;;
23658;SDS011;12006;42.666;23.326;2023-01-10T15:20:31;2.30;;;2.10;;
23658;SDS011;12006;42.666;23.326;2023-01-10T15:22:58;3.83;;;2.07;;
23658;SDS011;12006;42.666;23.326;2023-01-10T15:25:34;2.53;;;2.33;;
23658;SDS011;12006;42.666;23.326;2023-01-10T15:28:03;3.50;;;3.03;;
23658;SDS011;12006;42.666;23.326;2023-01-10T15:30:29;3.10;;;2.80;;
23658;SDS011;12006;42.666;23.326;2023-01-10T15:32:56;3.83;;;1.90;;
23658;SDS011;12006;42.666;23.326;2023-01-10T15:35:26;2.03;;;1.60;;
23658;SDS011;12006;42.666;23.326;2023-01-10T15:37:54;2.10;;;1.90;;
23658;SDS011;12006;42.666;23.326;2023-01-10T15:40:24;0.80;;;0.80;;
23658;SDS011;12006;42.666;23.326;2023-01-10T15:43:08;1.50;;;1.30;;
23658;SDS011;12006;42.666;23.326;2023-01-10T15:45:33;1.30;;;1.20;;
23658;SDS011;12006;42.666;23.326;2023-01-10T15:48:03;4.30;;;1.40;;
23658;SDS011;12006;42.666;23.326;2023-01-10T15:50:30;2.07;;;1.87;;
23658;SDS011;12006;42.666;23.326;2023-01-10T15:55:34;1.70;;;1.60;;
23658;SDS011;12006;42.666;23.326;2023-01-10T15:58:00;2.27;;;1.70;;
23658;SDS011;12006;42.666;23.326;2023-01-10T16:00:26;2.17;;;1.97;;
23658;SDS011;12006;42.666;23.326;2023-01-10T16:02:51;1.70;;;1.00;;
23658;SDS011;12006;42.666;23.326;2023-01-10T16:05:17;1.93;;;1.67;;
23658;SDS011;12006;42.666;23.326;2023-01-10T16:07:43;1.97;;;1.50;;
23658;SDS011;12006;42.666;23.326;2023-01-10T16:10:25;1.73;;;1.20;;
23658;SDS011;12006;42.666;23.326;2023-01-10T16:12:51;3.60;;;2.50;;
23658;SDS011;12006;42.666;23.326;2023-01-10T16:15:35;3.03;;;2.30;;